This is the latest recevied weather packets stored in our database for station/object AI5ON. If no packets are shown the sender has not sent any weather packets the latest 10 day(s).
| Time | Temp. | Humidity | Pressure | Rain* | Wind** | Luminosity | Snow |
|---|---|---|---|---|---|---|---|
| 1787936267 | 32.78° C | 63% | 1017.1 hPa | 0 mm | - | 948 W/m² | - |
| 1787935963 | 33.33° C | 61% | 1017.2 hPa | 0 mm | - | 744 W/m² | - |
| 1787935658 | 33.89° C | 58% | 1017 hPa | 0 mm | - | 881 W/m² | - |
| 1787935354 | 33.33° C | 61% | 1017.1 hPa | 0 mm | - | 880 W/m² | - |
| 1787935050 | 33.33° C | 59% | 1017.2 hPa | 0 mm | - | 287 W/m² | - |
| 1787934745 | 33.33° C | 60% | 1017.2 hPa | 0 mm | - | 787 W/m² | - |
| 1787934444 | 33.33° C | 62% | 1017 hPa | 0 mm | - | 827 W/m² | - |
| 1787934139 | 32.78° C | 67% | 1017.1 hPa | 0 mm | - | 816 W/m² | - |
| 1787933838 | 32.78° C | 62% | 1017.2 hPa | 0 mm | - | 193 W/m² | - |
| 1787933533 | 32.78° C | 62% | 1017.3 hPa | 0 mm | - | 796 W/m² | - |
| 1787933227 | 33.89° C | 61% | 1017.1 hPa | 0 mm | - | 757 W/m² | - |
| 1787932922 | 33.33° C | 62% | 1017 hPa | 0 mm | - | 748 W/m² | - |
| 1787932621 | 33.33° C | 63% | 1017 hPa | 0 mm | - | 730 W/m² | - |
| 1787932321 | 32.78° C | 63% | 1017.1 hPa | 0 mm | - | 713 W/m² | - |
| 1787932015 | 32.78° C | 63% | 1017.1 hPa | 0 mm | - | 691 W/m² | - |
| 1787931714 | 32.78° C | 64% | 1017 hPa | 0 mm | - | 657 W/m² | - |
| 1787931414 | 32.78° C | 65% | 1016.7 hPa | 0 mm | - | 664 W/m² | - |
| 1787931109 | 32.78° C | 65% | 1016.8 hPa | 0 mm | - | 649 W/m² | - |
| 1787930808 | 32.22° C | 65% | 1016.9 hPa | 0 mm | - | 635 W/m² | - |
| 1787930503 | 32.78° C | 64% | 1017 hPa | 0 mm | - | 620 W/m² | - |
| 1787930198 | 32.78° C | 66% | 1017 hPa | 0 mm | - | 602 W/m² | - |
| 1787929897 | 32.78° C | 65% | 1017 hPa | 0 mm | - | 579 W/m² | - |
| 1787929597 | 31.67° C | 69% | 1017.1 hPa | 0 mm | - | 571 W/m² | - |
| 1787929297 | 32.22° C | 69% | 1017.1 hPa | 0 mm | - | 547 W/m² | - |
| 1787928995 | 31.67° C | 68% | 1016.9 hPa | 0 mm | - | 533 W/m² | - |
* Rain latest hour (hover to see other rain measurements)
** Current wind speed in m/s (hover to see current wind gust speed)